Time,TemperatureF,DewpointF,PressureIn,WindDirection,WindDirectionDegrees,WindSpeedMPH,WindSpeedGustMPH,Humidity,HourlyPrecipIn,Conditions,Clouds,dailyrainin,SolarRadiationWatts/m^2,SoftwareType,DateUTC
2013-01-09 00:04:00,48.2,47.1,29.67,NW,311,2.0,4.0,96,0.05,,---,0.53,0.00,VWS V14.01,2013-01-09 08:04:00,
2013-01-09 00:09:00,48.1,47.0,29.67,WSW,258,4.0,6.0,96,0.05,,---,0.00,0.00,VWS V14.01,2013-01-09 08:09:00,
2013-01-09 00:14:00,48.1,47.0,29.67,South,170,0.0,6.0,96,0.04,,---,0.00,0.00,VWS V14.01,2013-01-09 08:14:00,
2013-01-09 00:19:00,48.0,46.9,29.67,WSW,240,0.0,4.0,96,0.04,,---,0.01,0.00,VWS V14.01,2013-01-09 08:19:00,
2013-01-09 00:24:00,48.0,46.9,29.67,West,271,3.0,7.0,96,0.03,,---,0.01,0.00,VWS V14.01,2013-01-09 08:24:00,
2013-01-09 00:29:00,48.0,46.9,29.67,SSW,193,1.0,7.0,96,0.03,,---,0.01,0.00,VWS V14.01,2013-01-09 08:29:00,
2013-01-09 00:34:00,48.0,46.9,29.67,SW,222,1.0,9.0,96,0.03,,---,0.01,0.00,VWS V14.01,2013-01-09 08:34:00,
2013-01-09 00:39:00,47.9,46.8,29.67,SW,236,3.0,7.0,96,0.03,,---,0.02,0.00,VWS V14.01,2013-01-09 08:39:00,
2013-01-09 00:44:00,47.9,46.8,29.67,WSW,241,5.0,7.0,96,0.03,,---,0.02,0.00,VWS V14.01,2013-01-09 08:44:00,
2013-01-09 00:49:00,47.9,46.8,29.67,WNW,286,5.0,7.0,96,0.04,,---,0.03,0.00,VWS V14.01,2013-01-09 08:49:00,
2013-01-09 00:54:00,47.9,46.8,29.67,South,174,5.0,9.0,96,0.03,,---,0.03,0.00,VWS V14.01,2013-01-09 08:54:00,
2013-01-09 00:59:00,47.8,46.7,29.67,WSW,254,3.0,9.0,96,0.04,,---,0.04,0.00,VWS V14.01,2013-01-09 08:59:00,
2013-01-09 01:04:00,47.8,46.7,29.67,West,265,4.0,10.0,96,0.05,,---,0.05,0.00,VWS V14.01,2013-01-09 09:04:00,
2013-01-09 01:09:00,47.8,46.7,29.68,WSW,237,2.0,8.0,96,0.06,,---,0.06,0.00,VWS V14.01,2013-01-09 09:09:00,
2013-01-09 01:14:00,47.8,46.7,29.68,NNE,13,2.0,10.0,96,0.08,,---,0.08,0.00,VWS V14.01,2013-01-09 09:14:00,
2013-01-09 01:19:00,47.7,46.9,29.68,WSW,245,5.0,11.0,97,0.10,,---,0.10,0.00,VWS V14.01,2013-01-09 09:19:00,
2013-01-09 01:24:00,47.7,46.9,29.67,WSW,256,2.0,11.0,97,0.10,,---,0.11,0.00,VWS V14.01,2013-01-09 09:24:00,
2013-01-09 01:29:00,47.6,46.5,29.67,SSW,192,4.0,20.0,96,0.10,,---,0.11,0.00,VWS V14.01,2013-01-09 09:29:00,
2013-01-09 01:34:00,47.6,46.5,29.67,West,260,1.0,20.0,96,0.11,,---,0.12,0.00,VWS V14.01,2013-01-09 09:34:00,
2013-01-09 01:39:00,47.6,46.5,29.68,SE,138,4.0,10.0,96,0.11,,---,0.13,0.00,VWS V14.01,2013-01-09 09:39:00,
2013-01-09 01:44:00,47.5,46.4,29.68,SSW,193,1.0,10.0,96,0.12,,---,0.14,0.00,VWS V14.01,2013-01-09 09:44:00,
2013-01-09 01:49:00,47.5,46.4,29.67,SW,227,3.0,15.0,96,0.12,,---,0.15,0.00,VWS V14.01,2013-01-09 09:49:00,
2013-01-09 01:54:00,47.5,46.4,29.67,ESE,105,2.0,15.0,96,0.13,,---,0.16,0.00,VWS V14.01,2013-01-09 09:54:00,
2013-01-09 01:59:00,47.4,46.3,29.67,SW,234,1.0,7.0,96,0.13,,---,0.17,0.00,VWS V14.01,2013-01-09 09:59:00,
2013-01-09 02:04:00,47.4,46.3,29.68,West,275,4.0,9.0,96,0.12,,---,0.17,0.00,VWS V14.01,2013-01-09 10:04:00,
2013-01-09 02:09:00,47.4,46.3,29.67,WNW,288,2.0,9.0,96,0.12,,---,0.18,0.00,VWS V14.01,2013-01-09 10:09:00,
2013-01-09 02:14:00,47.3,46.2,29.67,SSE,167,2.0,9.0,96,0.12,,---,0.19,0.00,VWS V14.01,2013-01-09 10:14:00,
2013-01-09 02:19:00,47.2,46.1,29.67,SSE,168,2.0,6.0,96,0.10,,---,0.19,0.00,VWS V14.01,2013-01-09 10:19:00,
2013-01-09 02:24:00,47.2,46.1,29.67,SSE,157,2.0,8.0,96,0.09,,---,0.20,0.00,VWS V14.01,2013-01-09 10:24:00,
2013-01-09 02:29:00,47.1,46.0,29.67,NW,313,3.0,8.0,96,0.10,,---,0.21,0.00,VWS V14.01,2013-01-09 10:29:00,
2013-01-09 02:34:00,47.0,45.9,29.67,South,188,2.0,9.0,96,0.10,,---,0.22,0.00,VWS V14.01,2013-01-09 10:34:00,
2013-01-09 02:39:00,47.0,45.9,29.67,SE,130,1.0,9.0,96,0.10,,---,0.23,0.00,VWS V14.01,2013-01-09 10:39:00,
2013-01-09 02:44:00,47.0,45.9,29.67,SSW,192,0.0,9.0,96,0.11,,---,0.25,0.00,VWS V14.01,2013-01-09 10:44:00,
2013-01-09 02:49:00,46.9,45.8,29.67,West,274,3.0,7.0,96,0.12,,---,0.27,0.00,VWS V14.01,2013-01-09 10:49:00,
2013-01-09 02:56:00,46.0,44.7,29.67,West,281,0.0,12.0,95,0.13,,---,0.29,0.00,VWS V14.01,2013-01-09 10:56:00,
2013-01-09 03:01:00,45.2,43.6,29.67,NW,309,3.0,12.0,94,0.13,,---,0.30,0.00,VWS V14.01,2013-01-09 11:01:00,
2013-01-09 03:06:00,44.8,43.2,29.66,West,261,5.0,7.0,94,0.14,,---,0.31,0.00,VWS V14.01,2013-01-09 11:06:00,
2013-01-09 03:11:00,44.4,43.1,29.66,WSW,246,3.0,6.0,95,0.14,,---,0.32,0.00,VWS V14.01,2013-01-09 11:11:00,
2013-01-09 03:16:00,44.0,42.7,29.66,West,267,4.0,5.0,95,0.14,,---,0.33,0.00,VWS V14.01,2013-01-09 11:16:00,
2013-01-09 03:21:00,43.8,42.5,29.65,West,266,1.0,4.0,95,0.14,,---,0.34,0.00,VWS V14.01,2013-01-09 11:21:00,
2013-01-09 03:26:00,43.6,42.3,29.64,NW,304,4.0,5.0,95,0.15,,---,0.35,0.00,VWS V14.01,2013-01-09 11:26:00,
2013-01-09 03:31:00,43.5,42.4,29.64,WNW,283,0.0,6.0,96,0.14,,---,0.35,0.00,VWS V14.01,2013-01-09 11:31:00,
2013-01-09 03:36:00,43.4,42.1,29.64,SW,222,0.0,6.0,95,0.14,,---,0.36,0.00,VWS V14.01,2013-01-09 11:36:00,
2013-01-09 03:41:00,43.3,42.2,29.64,SSW,213,0.0,2.0,96,0.14,,---,0.37,0.00,VWS V14.01,2013-01-09 11:41:00,
2013-01-09 03:46:00,43.1,42.0,29.65,SSW,213,0.0,0.0,96,0.13,,---,0.38,0.00,VWS V14.01,2013-01-09 11:46:00,
2013-01-09 03:51:00,43.1,42.0,29.64,SSW,213,0.0,0.0,96,0.11,,---,0.39,0.00,VWS V14.01,2013-01-09 11:51:00,
2013-01-09 03:56:00,43.0,41.9,29.64,WSW,255,0.0,2.0,96,0.11,,---,0.40,0.00,VWS V14.01,2013-01-09 11:56:00,
2013-01-09 04:01:00,42.9,41.8,29.64,WSW,255,0.0,2.0,96,0.10,,---,0.40,0.00,VWS V14.01,2013-01-09 12:01:00,
2013-01-09 04:06:00,42.8,41.7,29.63,SW,234,0.0,0.0,96,0.10,,---,0.41,0.00,VWS V14.01,2013-01-09 12:06:00,
2013-01-09 04:11:00,42.8,41.7,29.63,SW,223,0.0,1.0,96,0.09,,---,0.41,0.00,VWS V14.01,2013-01-09 12:11:00,
2013-01-09 04:16:00,42.7,41.6,29.64,NW,314,0.0,1.0,96,0.09,,---,0.42,0.00,VWS V14.01,2013-01-09 12:16:00,
2013-01-09 04:21:00,42.6,41.5,29.64,WSW,238,0.0,3.0,96,0.08,,---,0.42,0.00,VWS V14.01,2013-01-09 12:21:00,
2013-01-09 04:26:00,42.6,41.5,29.63,WSW,238,0.0,2.0,96,0.08,,---,0.43,0.00,VWS V14.01,2013-01-09 12:26:00,
2013-01-09 04:31:00,42.5,41.4,29.63,WSW,238,0.0,2.0,96,0.08,,---,0.43,0.00,VWS V14.01,2013-01-09 12:31:00,
2013-01-09 04:36:00,42.5,41.4,29.63,WSW,238,0.0,2.0,96,0.08,,---,0.44,0.00,VWS V14.01,2013-01-09 12:36:00,
2013-01-09 04:41:00,42.4,41.3,29.62,WSW,238,0.0,2.0,96,0.07,,---,0.44,0.00,VWS V14.01,2013-01-09 12:41:00,
2013-01-09 04:47:00,42.4,41.3,29.62,SSE,161,0.0,1.0,96,0.07,,---,0.45,0.00,VWS V14.01,2013-01-09 12:47:00,
2013-01-09 04:52:00,42.3,41.2,29.62,South,187,0.0,2.0,96,0.06,,---,0.45,0.00,VWS V14.01,2013-01-09 12:52:00,
2013-01-09 04:57:00,42.2,41.1,29.62,South,187,0.0,2.0,96,0.06,,---,0.46,0.00,VWS V14.01,2013-01-09 12:57:00,
2013-01-09 05:02:00,42.2,41.1,29.62,South,169,0.0,2.0,96,0.07,,---,0.47,0.00,VWS V14.01,2013-01-09 13:02:00,
2013-01-09 05:07:00,42.0,40.9,29.61,South,169,0.0,2.0,96,0.08,,---,0.49,0.00,VWS V14.01,2013-01-09 13:07:00,
2013-01-09 05:12:00,42.0,40.9,29.61,South,169,0.0,0.0,96,0.09,,---,0.50,0.00,VWS V14.01,2013-01-09 13:12:00,
2013-01-09 05:17:00,41.9,40.8,29.61,South,169,0.0,1.0,96,0.09,,---,0.51,0.00,VWS V14.01,2013-01-09 13:17:00,
2013-01-09 05:22:00,41.9,41.1,29.61,WSW,248,0.0,2.0,97,0.10,,---,0.52,0.00,VWS V14.01,2013-01-09 13:22:00,
2013-01-09 05:27:00,41.8,41.0,29.61,North,349,0.0,3.0,97,0.10,,---,0.53,0.00,VWS V14.01,2013-01-09 13:27:00,
2013-01-09 05:32:00,41.6,40.5,29.61,West,281,0.0,3.0,96,0.11,,---,0.54,0.00,VWS V14.01,2013-01-09 13:32:00,
2013-01-09 05:37:00,41.4,40.3,29.61,East,100,1.0,4.0,96,0.11,,---,0.55,0.00,VWS V14.01,2013-01-09 13:37:00,
2013-01-09 05:42:00,41.1,40.0,29.61,SSE,168,1.0,4.0,96,0.12,,---,0.56,0.00,VWS V14.01,2013-01-09 13:42:00,
2013-01-09 05:47:00,40.9,39.8,29.60,SSE,150,0.0,3.0,96,0.11,,---,0.56,0.00,VWS V14.01,2013-01-09 13:47:00,
2013-01-09 05:52:00,40.7,39.7,29.60,SSE,156,0.0,5.0,96,0.12,,---,0.57,0.00,VWS V14.01,2013-01-09 13:52:00,
2013-01-09 05:57:00,40.6,39.5,29.60,SSE,157,0.0,5.0,96,0.12,,---,0.58,0.00,VWS V14.01,2013-01-09 13:57:00,
2013-01-09 06:02:00,40.4,39.3,29.60,SSE,157,0.0,2.0,96,0.12,,---,0.59,0.00,VWS V14.01,2013-01-09 14:02:00,
2013-01-09 06:07:00,40.4,39.3,29.60,SSE,157,0.0,1.0,96,0.11,,---,0.60,0.00,VWS V14.01,2013-01-09 14:07:00,
2013-01-09 06:12:00,40.3,39.2,29.60,East,84,0.0,1.0,96,0.11,,---,0.61,0.00,VWS V14.01,2013-01-09 14:12:00,
2013-01-09 06:17:00,40.2,39.2,29.61,SE,127,0.0,2.0,96,0.11,,---,0.62,0.00,VWS V14.01,2013-01-09 14:17:00,
2013-01-09 06:22:00,40.1,39.0,29.61,WSW,248,0.0,3.0,96,0.11,,---,0.63,0.00,VWS V14.01,2013-01-09 14:22:00,
2013-01-09 06:27:00,40.0,39.0,29.61,SW,217,1.0,5.0,96,0.11,,---,0.64,0.00,VWS V14.01,2013-01-09 14:27:00,
2013-01-09 06:32:00,39.8,38.8,29.61,SW,227,0.0,5.0,96,0.11,,---,0.65,0.00,VWS V14.01,2013-01-09 14:32:00,
2013-01-09 06:37:00,39.7,38.7,29.61,SW,216,0.0,3.0,96,0.11,,---,0.66,0.00,VWS V14.01,2013-01-09 14:37:00,
2013-01-09 06:42:00,39.5,38.5,29.61,SE,140,0.0,2.0,96,0.12,,---,0.67,0.00,VWS V14.01,2013-01-09 14:42:00,
2013-01-09 06:47:00,39.4,38.4,29.62,SSW,206,3.0,5.0,96,0.12,,---,0.68,0.00,VWS V14.01,2013-01-09 14:47:00,
2013-01-09 06:52:00,39.3,38.3,29.62,South,169,2.0,5.0,96,0.12,,---,0.69,0.00,VWS V14.01,2013-01-09 14:52:00,
2013-01-09 06:57:00,39.2,38.2,29.63,South,177,1.0,6.0,96,0.12,,---,0.70,0.00,VWS V14.01,2013-01-09 14:57:00,
2013-01-09 07:02:00,39.1,38.1,29.63,SW,226,1.0,5.0,96,0.12,,---,0.71,0.00,VWS V14.01,2013-01-09 15:02:00,
2013-01-09 07:07:00,39.0,38.0,29.63,SSW,199,1.0,4.0,96,0.11,,---,0.71,0.00,VWS V14.01,2013-01-09 15:07:00,
2013-01-09 07:12:00,38.9,37.9,29.63,South,188,0.0,4.0,96,0.12,,---,0.72,0.00,VWS V14.01,2013-01-09 15:12:00,
2013-01-09 07:17:00,38.8,37.8,29.64,SSE,158,2.0,3.0,96,0.11,,---,0.73,0.00,VWS V14.01,2013-01-09 15:17:00,
2013-01-09 07:22:00,38.6,37.6,29.63,SW,234,1.0,3.0,96,0.12,,---,0.74,0.00,VWS V14.01,2013-01-09 15:22:00,
2013-01-09 07:27:00,38.4,37.4,29.64,SW,219,2.0,4.0,96,0.12,,---,0.75,0.00,VWS V14.01,2013-01-09 15:27:00,
2013-01-09 07:32:00,38.3,37.3,29.64,SSW,202,0.0,4.0,96,0.11,,---,0.76,0.00,VWS V14.01,2013-01-09 15:32:00,
2013-01-09 07:37:00,38.0,37.0,29.64,South,184,0.0,4.0,96,0.11,,---,0.77,0.00,VWS V14.01,2013-01-09 15:37:00,
2013-01-09 07:42:00,37.8,36.8,29.64,SSW,196,3.0,3.0,96,0.11,,---,0.78,0.00,VWS V14.01,2013-01-09 15:42:00,
2013-01-09 07:47:00,37.7,36.7,29.64,SSW,196,0.0,3.0,96,0.11,,---,0.79,0.00,VWS V14.01,2013-01-09 15:47:00,
2013-01-09 07:52:00,37.4,36.4,29.65,SE,124,0.0,4.0,96,0.11,,---,0.80,0.00,VWS V14.01,2013-01-09 15:52:00,
2013-01-09 07:57:00,36.9,35.6,29.65,WSW,240,2.0,7.0,95,0.10,,---,0.80,0.00,VWS V14.01,2013-01-09 15:57:00,
2013-01-09 08:02:00,36.4,35.1,29.65,WSW,246,0.0,6.0,95,0.11,,---,0.81,0.00,VWS V14.01,2013-01-09 16:02:00,
2013-01-09 08:07:00,36.1,34.8,29.66,WSW,247,2.0,5.0,95,0.11,,---,0.82,0.00,VWS V14.01,2013-01-09 16:07:00,
2013-01-09 08:12:00,35.9,34.6,29.66,SSW,200,0.0,5.0,95,0.11,,---,0.83,0.00,VWS V14.01,2013-01-09 16:12:00,
2013-01-09 08:17:00,35.8,34.8,29.66,South,182,0.0,4.0,96,0.11,,---,0.84,0.00,VWS V14.01,2013-01-09 16:17:00,
2013-01-09 08:22:00,35.7,34.7,29.66,SW,217,0.0,4.0,96,0.10,,---,0.84,0.00,VWS V14.01,2013-01-09 16:22:00,
2013-01-09 08:27:00,35.7,34.7,29.67,East,92,1.0,3.0,96,0.10,,---,0.85,0.00,VWS V14.01,2013-01-09 16:27:00,
2013-01-09 08:32:00,35.6,34.6,29.67,SSE,168,0.0,2.0,96,0.09,,---,0.85,0.00,VWS V14.01,2013-01-09 16:32:00,
2013-01-09 08:37:00,35.4,34.4,29.67,East,100,0.0,1.0,96,0.09,,---,0.86,0.00,VWS V14.01,2013-01-09 16:37:00,
2013-01-09 08:42:00,35.2,34.2,29.67,ESE,107,2.0,5.0,96,0.08,,---,0.86,0.00,VWS V14.01,2013-01-09 16:42:00,
2013-01-09 08:47:00,34.9,33.9,29.68,East,97,2.0,5.0,96,0.08,,---,0.87,0.00,VWS V14.01,2013-01-09 16:47:00,
2013-01-09 08:52:00,34.8,33.8,29.68,SE,133,0.0,4.0,96,0.07,,---,0.87,0.00,VWS V14.01,2013-01-09 16:52:00,
2013-01-09 08:57:00,34.7,33.7,29.68,SE,126,4.0,5.0,96,0.08,,---,0.88,0.00,VWS V14.01,2013-01-09 16:57:00,
2013-01-09 09:03:00,34.4,33.4,29.68,SSE,152,1.0,5.0,96,0.08,,---,0.89,0.00,VWS V14.01,2013-01-09 17:03:00,
2013-01-09 09:08:00,34.3,33.3,29.68,SSE,158,0.0,4.0,96,0.07,,---,0.89,0.00,VWS V14.01,2013-01-09 17:08:00,
2013-01-09 09:13:00,34.0,33.0,29.68,West,275,0.0,1.0,96,0.07,,---,0.90,5.00,VWS V14.01,2013-01-09 17:13:00,
2013-01-09 09:18:00,33.9,32.9,29.68,WSW,237,0.0,3.0,96,0.06,,---,0.90,5.00,VWS V14.01,2013-01-09 17:18:00,
2013-01-09 09:23:00,33.7,32.7,29.68,SW,231,0.0,3.0,96,0.07,,---,0.91,5.00,VWS V14.01,2013-01-09 17:23:00,
2013-01-09 09:28:00,33.7,32.7,29.68,ESE,119,0.0,2.0,96,0.07,,---,0.92,5.00,VWS V14.01,2013-01-09 17:28:00,
2013-01-09 09:33:00,33.7,32.7,29.68,ESE,115,0.0,2.0,96,0.07,,---,0.92,7.00,VWS V14.01,2013-01-09 17:33:00,
2013-01-09 09:38:00,33.8,32.8,29.68,ESE,103,1.0,5.0,96,0.07,,---,0.93,7.00,VWS V14.01,2013-01-09 17:38:00,
2013-01-09 09:43:00,33.9,32.9,29.68,SE,137,4.0,5.0,96,0.07,,---,0.93,9.00,VWS V14.01,2013-01-09 17:43:00,
2013-01-09 09:48:00,34.1,33.1,29.68,NE,56,1.0,5.0,96,0.07,,---,0.94,9.00,VWS V14.01,2013-01-09 17:48:00,
2013-01-09 09:53:00,34.2,33.4,29.69,East,100,0.0,5.0,97,0.07,,---,0.94,9.00,VWS V14.01,2013-01-09 17:53:00,
2013-01-09 09:58:00,34.4,33.6,29.68,SE,143,0.0,4.0,97,0.07,,---,0.95,11.00,VWS V14.01,2013-01-09 17:58:00,
2013-01-09 10:03:00,34.4,33.6,29.68,ENE,57,0.0,2.0,97,0.06,,---,0.95,12.00,VWS V14.01,2013-01-09 18:03:00,
2013-01-09 10:08:00,34.4,33.6,29.68,West,280,0.0,2.0,97,0.07,,---,0.96,14.00,VWS V14.01,2013-01-09 18:08:00,
2013-01-09 10:13:00,34.4,33.6,29.68,South,186,0.0,2.0,97,0.06,,---,0.96,16.00,VWS V14.01,2013-01-09 18:13:00,
2013-01-09 10:18:00,34.6,33.8,29.68,SSE,153,0.0,2.0,97,0.07,,---,0.97,21.00,VWS V14.01,2013-01-09 18:18:00,
2013-01-09 10:23:00,34.8,34.0,29.68,SSE,151,1.0,2.0,97,0.06,,---,0.97,21.00,VWS V14.01,2013-01-09 18:23:00,
2013-01-09 10:28:00,35.0,34.2,29.69,East,98,0.0,2.0,97,0.05,,---,0.97,23.00,VWS V14.01,2013-01-09 18:28:00,
2013-01-09 10:33:00,35.1,34.3,29.69,SSE,150,0.0,5.0,97,0.06,,---,0.98,18.00,VWS V14.01,2013-01-09 18:33:00,
2013-01-09 10:38:00,35.2,34.4,29.69,SE,146,0.0,7.0,97,0.05,,---,0.98,16.00,VWS V14.01,2013-01-09 18:38:00,
2013-01-09 10:41:00,35.3,34.5,29.68,ENE,72,0.0,7.0,97,0.05,,---,0.98,14.00,VWS V14.01,2013-01-09 18:41:00,
2013-01-09 10:44:00,35.3,34.5,29.69,ENE,72,0.0,7.0,97,0.06,,---,0.99,16.00,VWS V14.01,2013-01-09 18:44:00,
2013-01-09 10:48:00,35.4,34.6,29.68,NE,53,0.0,4.0,97,0.05,,---,0.99,19.00,VWS V14.01,2013-01-09 18:48:00,
2013-01-09 10:49:00,35.4,34.6,29.68,ESE,121,2.0,4.0,97,0.05,,---,0.99,19.00,VWS V14.01,2013-01-09 18:49:00,
2013-01-09 10:54:00,35.5,34.7,29.69,ESE,123,5.0,5.0,97,0.05,,---,0.99,14.00,VWS V14.01,2013-01-09 18:54:00,
2013-01-09 10:59:00,35.5,34.7,29.69,SSW,213,1.0,5.0,97,0.05,,---,1.00,18.00,VWS V14.01,2013-01-09 18:59:00,
2013-01-09 11:04:00,35.5,34.7,29.70,SSW,203,0.0,5.0,97,0.05,,---,1.00,16.00,VWS V14.01,2013-01-09 19:04:00,
2013-01-09 11:09:00,35.6,34.8,29.70,West,269,0.0,3.0,97,0.04,,---,1.00,16.00,VWS V14.01,2013-01-09 19:09:00,
2013-01-09 11:14:00,35.6,34.8,29.70,SSW,211,0.0,6.0,97,0.05,,---,1.01,21.00,VWS V14.01,2013-01-09 19:14:00,
2013-01-09 11:19:00,35.6,34.8,29.70,West,266,0.0,6.0,97,0.04,,---,1.01,19.00,VWS V14.01,2013-01-09 19:19:00,
2013-01-09 11:24:00,35.7,34.9,29.70,SSE,165,0.0,6.0,97,0.04,,---,1.01,19.00,VWS V14.01,2013-01-09 19:24:00,
2013-01-09 11:29:00,35.6,34.8,29.69,SSE,168,0.0,7.0,97,0.05,,---,1.02,19.00,VWS V14.01,2013-01-09 19:29:00,
2013-01-09 11:34:00,35.7,34.9,29.70,SW,236,0.0,4.0,97,0.05,,---,1.03,16.00,VWS V14.01,2013-01-09 19:34:00,
2013-01-09 11:39:00,35.7,34.9,29.70,SSE,162,2.0,4.0,97,0.05,,---,1.03,14.00,VWS V14.01,2013-01-09 19:39:00,
2013-01-09 11:44:00,35.8,35.0,29.69,East,97,4.0,7.0,97,0.04,,---,1.03,32.00,VWS V14.01,2013-01-09 19:44:00,
2013-01-09 11:49:00,35.9,35.1,29.69,North,355,0.0,7.0,97,0.04,,---,1.03,28.00,VWS V14.01,2013-01-09 19:49:00,
2013-01-09 11:54:00,36.0,35.2,29.69,East,98,0.0,5.0,97,0.05,,---,1.04,26.00,VWS V14.01,2013-01-09 19:54:00,
2013-01-09 11:59:00,36.0,35.2,29.69,South,173,1.0,5.0,97,0.04,,---,1.04,30.00,VWS V14.01,2013-01-09 19:59:00,
2013-01-09 12:04:00,36.1,35.3,29.69,South,175,0.0,8.0,97,0.04,,---,1.04,26.00,VWS V14.01,2013-01-09 20:04:00,
2013-01-09 12:09:00,36.2,35.4,29.69,South,169,1.0,6.0,97,0.04,,---,1.04,21.00,VWS V14.01,2013-01-09 20:09:00,
2013-01-09 12:14:00,36.2,35.4,29.69,NE,56,0.0,5.0,97,0.03,,---,1.04,21.00,VWS V14.01,2013-01-09 20:14:00,
2013-01-09 12:19:00,36.4,35.6,29.69,NE,45,0.0,5.0,97,0.03,,---,1.04,21.00,VWS V14.01,2013-01-09 20:19:00,
2013-01-09 12:24:00,36.5,35.7,29.69,SSW,201,0.0,4.0,97,0.03,,---,1.04,28.00,VWS V14.01,2013-01-09 20:24:00,
2013-01-09 12:29:00,36.6,35.8,29.69,SW,217,0.0,8.0,97,0.02,,---,1.04,30.00,VWS V14.01,2013-01-09 20:29:00,
2013-01-09 12:34:00,36.7,35.9,29.69,ESE,107,1.0,4.0,97,0.01,,---,1.04,19.00,VWS V14.01,2013-01-09 20:34:00,
2013-01-09 12:39:00,36.9,36.1,29.69,NW,310,0.0,5.0,97,0.01,,---,1.04,18.00,VWS V14.01,2013-01-09 20:39:00,
2013-01-09 12:44:00,37.0,36.2,29.69,South,180,0.0,6.0,97,0.01,,---,1.04,16.00,VWS V14.01,2013-01-09 20:44:00,
2013-01-09 12:49:00,37.1,36.3,29.69,ESE,123,0.0,6.0,97,0.01,,---,1.04,25.00,VWS V14.01,2013-01-09 20:49:00,
2013-01-09 12:54:00,37.2,36.4,29.69,East,90,1.0,2.0,97,0.00,,---,1.04,21.00,VWS V14.01,2013-01-09 20:54:00,
2013-01-09 12:59:00,37.3,36.5,29.69,NNW,330,1.0,7.0,97,0.00,,---,1.04,32.00,VWS V14.01,2013-01-09 20:59:00,
2013-01-09 13:04:00,37.4,36.6,29.70,ENE,65,1.0,4.0,97,0.00,,---,1.04,26.00,VWS V14.01,2013-01-09 21:04:00,
2013-01-09 13:09:00,37.5,36.7,29.70,South,177,1.0,4.0,97,0.00,,---,1.04,23.00,VWS V14.01,2013-01-09 21:09:00,
2013-01-09 13:14:00,37.6,36.8,29.70,East,93,0.0,3.0,97,0.00,,---,1.04,18.00,VWS V14.01,2013-01-09 21:14:00,
2013-01-09 13:19:00,37.8,37.0,29.70,ESE,103,0.0,4.0,97,0.00,,---,1.04,25.00,VWS V14.01,2013-01-09 21:19:00,
2013-01-09 13:24:00,37.8,37.0,29.70,NNE,27,0.0,4.0,97,0.00,,---,1.04,23.00,VWS V14.01,2013-01-09 21:24:00,
2013-01-09 13:29:00,37.9,37.1,29.70,SSE,165,2.0,5.0,97,0.00,,---,1.04,23.00,VWS V14.01,2013-01-09 21:29:00,
2013-01-09 13:34:00,37.9,37.1,29.71,ESE,111,0.0,6.0,97,0.00,,---,1.04,18.00,VWS V14.01,2013-01-09 21:34:00,
2013-01-09 13:39:00,38.0,37.2,29.71,WSW,254,0.0,6.0,97,0.00,,---,1.04,18.00,VWS V14.01,2013-01-09 21:39:00,
2013-01-09 13:44:00,38.1,37.3,29.71,SW,228,5.0,8.0,97,0.00,,---,1.04,18.00,VWS V14.01,2013-01-09 21:44:00,
2013-01-09 13:49:00,38.2,37.4,29.71,WSW,239,0.0,8.0,97,0.00,,---,1.04,18.00,VWS V14.01,2013-01-09 21:49:00,
2013-01-09 13:54:00,38.2,37.4,29.72,SSE,152,1.0,6.0,97,0.00,,---,1.04,14.00,VWS V14.01,2013-01-09 21:54:00,
2013-01-09 13:59:00,38.3,37.5,29.72,East,94,2.0,6.0,97,0.00,,---,1.04,14.00,VWS V14.01,2013-01-09 21:59:00,
2013-01-09 14:05:00,38.3,37.5,29.72,South,174,0.0,6.0,97,0.00,,---,1.04,14.00,VWS V14.01,2013-01-09 22:05:00,
2013-01-09 14:10:00,38.4,37.6,29.72,SE,136,4.0,4.0,97,0.00,,---,1.04,18.00,VWS V14.01,2013-01-09 22:10:00,
2013-01-09 14:15:00,38.3,37.5,29.72,ESE,121,1.0,7.0,97,0.00,,---,1.04,16.00,VWS V14.01,2013-01-09 22:15:00,
2013-01-09 14:20:00,38.4,37.6,29.72,WNW,288,0.0,6.0,97,0.00,,---,1.04,18.00,VWS V14.01,2013-01-09 22:20:00,
2013-01-09 14:25:00,38.4,37.6,29.72,WSW,248,1.0,9.0,97,0.00,,---,1.04,14.00,VWS V14.01,2013-01-09 22:25:00,
2013-01-09 14:30:00,38.5,37.7,29.73,South,177,0.0,5.0,97,0.00,,---,1.04,12.00,VWS V14.01,2013-01-09 22:30:00,
2013-01-09 14:35:00,38.5,37.7,29.73,ESE,120,4.0,4.0,97,0.00,,---,1.04,18.00,VWS V14.01,2013-01-09 22:35:00,
2013-01-09 14:40:00,38.5,37.7,29.73,NE,36,0.0,7.0,97,0.00,,---,1.04,23.00,VWS V14.01,2013-01-09 22:40:00,
2013-01-09 14:45:00,38.6,37.8,29.73,NNE,20,0.0,6.0,97,0.00,,---,1.04,23.00,VWS V14.01,2013-01-09 22:45:00,
2013-01-09 14:50:00,38.6,37.8,29.73,East,88,2.0,7.0,97,0.00,,---,1.04,16.00,VWS V14.01,2013-01-09 22:50:00,
2013-01-09 14:55:00,38.6,37.6,29.74,South,180,0.0,7.0,96,0.00,,---,1.04,14.00,VWS V14.01,2013-01-09 22:55:00,
2013-01-09 15:00:00,38.6,37.6,29.74,SSE,168,0.0,7.0,96,0.00,,---,1.04,16.00,VWS V14.01,2013-01-09 23:00:00,
2013-01-09 15:05:00,38.6,37.6,29.74,SSE,155,1.0,7.0,96,0.00,,---,1.04,18.00,VWS V14.01,2013-01-09 23:05:00,
2013-01-09 15:10:00,38.6,37.6,29.74,WSW,254,1.0,7.0,96,0.00,,---,1.04,18.00,VWS V14.01,2013-01-09 23:10:00,
2013-01-09 15:15:00,38.6,37.6,29.74,WSW,246,2.0,5.0,96,0.00,,---,1.04,12.00,VWS V14.01,2013-01-09 23:15:00,
2013-01-09 15:20:00,38.6,37.6,29.75,SW,222,3.0,7.0,96,0.00,,---,1.04,19.00,VWS V14.01,2013-01-09 23:20:00,
2013-01-09 15:25:00,38.7,37.7,29.75,SSE,165,2.0,7.0,96,0.00,,---,1.04,12.00,VWS V14.01,2013-01-09 23:25:00,
2013-01-09 15:30:00,38.7,37.7,29.75,South,178,2.0,6.0,96,0.00,,---,1.04,7.00,VWS V14.01,2013-01-09 23:30:00,
2013-01-09 15:35:00,38.7,37.7,29.76,SSE,153,4.0,7.0,96,0.00,,---,1.04,11.00,VWS V14.01,2013-01-09 23:35:00,
2013-01-09 15:40:00,38.7,37.7,29.76,East,100,4.0,5.0,96,0.00,,---,1.04,7.00,VWS V14.01,2013-01-09 23:40:00,
2013-01-09 15:45:00,38.6,37.3,29.76,SSW,209,1.0,5.0,95,0.00,,---,1.04,7.00,VWS V14.01,2013-01-09 23:45:00,
2013-01-09 15:50:00,38.6,37.3,29.76,East,101,0.0,4.0,95,0.00,,---,1.04,5.00,VWS V14.01,2013-01-09 23:50:00,
2013-01-09 15:55:00,38.7,37.4,29.77,NNE,19,1.0,4.0,95,0.00,,---,1.04,0.00,VWS V14.01,2013-01-09 23:55:00,
2013-01-09 16:00:00,38.6,37.3,29.77,SE,146,0.0,5.0,95,0.00,,---,1.04,0.00,VWS V14.01,2013-01-10 00:00:00,
2013-01-09 16:05:00,38.6,37.3,29.77,East,87,4.0,7.0,95,0.00,,---,1.04,0.00,VWS V14.01,2013-01-10 00:05:00,
2013-01-09 16:10:00,38.6,37.3,29.77,South,185,0.0,7.0,95,0.00,,---,1.04,0.00,VWS V14.01,2013-01-10 00:10:00,
2013-01-09 16:15:00,38.5,37.2,29.77,WNW,289,0.0,6.0,95,0.00,,---,1.04,0.00,VWS V14.01,2013-01-10 00:15:00,
2013-01-09 16:20:00,38.5,37.2,29.77,SSW,204,1.0,6.0,95,0.00,,---,1.04,0.00,VWS V14.01,2013-01-10 00:20:00,
2013-01-09 16:25:00,38.5,37.2,29.77,South,175,4.0,6.0,95,0.00,,---,1.04,0.00,VWS V14.01,2013-01-10 00:25:00,
2013-01-09 16:30:00,38.4,37.1,29.78,SSW,202,0.0,7.0,95,0.00,,---,1.04,0.00,VWS V14.01,2013-01-10 00:30:00,
2013-01-09 16:35:00,38.4,37.1,29.78,South,175,0.0,5.0,95,0.00,,---,1.04,0.00,VWS V14.01,2013-01-10 00:35:00,
2013-01-09 16:40:00,38.4,37.1,29.79,NW,315,2.0,5.0,95,0.00,,---,1.04,0.00,VWS V14.01,2013-01-10 00:40:00,
2013-01-09 16:45:00,38.3,37.0,29.79,ESE,107,0.0,7.0,95,0.00,,---,1.04,0.00,VWS V14.01,2013-01-10 00:45:00,
2013-01-09 16:50:00,38.0,36.4,29.79,WSW,244,0.0,4.0,94,0.00,,---,1.04,0.00,VWS V14.01,2013-01-10 00:50:00,
2013-01-09 16:55:00,37.5,35.7,29.80,NW,317,0.0,2.0,93,0.00,,---,1.04,0.00,VWS V14.01,2013-01-10 00:55:00,
2013-01-09 17:00:00,37.1,35.3,29.80,ENE,69,0.0,2.0,93,0.00,,---,1.04,0.00,VWS V14.01,2013-01-10 01:00:00,
2013-01-09 17:06:00,36.8,35.2,29.80,ESE,105,2.0,5.0,94,0.00,,---,1.04,0.00,VWS V14.01,2013-01-10 01:06:00,
2013-01-09 17:11:00,36.4,34.8,29.80,ESE,104,0.0,5.0,94,0.00,,---,1.04,0.00,VWS V14.01,2013-01-10 01:11:00,
2013-01-09 17:16:00,36.2,34.6,29.80,NW,313,0.0,4.0,94,0.00,,---,1.04,0.00,VWS V14.01,2013-01-10 01:16:00,
2013-01-09 17:21:00,36.2,34.9,29.80,North,355,0.0,4.0,95,0.00,,---,1.04,0.00,VWS V14.01,2013-01-10 01:21:00,
2013-01-09 17:26:00,36.1,34.8,29.80,SE,144,0.0,5.0,95,0.00,,---,1.04,0.00,VWS V14.01,2013-01-10 01:26:00,
2013-01-09 17:31:00,36.1,34.8,29.80,NE,36,2.0,5.0,95,0.00,,---,1.04,0.00,VWS V14.01,2013-01-10 01:31:00,
2013-01-09 17:36:00,36.0,34.7,29.81,ENE,65,0.0,3.0,95,0.00,,---,1.04,0.00,VWS V14.01,2013-01-10 01:36:00,
2013-01-09 17:41:00,36.0,34.7,29.81,ENE,65,0.0,1.0,95,0.00,,---,1.04,0.00,VWS V14.01,2013-01-10 01:41:00,
2013-01-09 17:46:00,36.0,34.7,29.81,ENE,65,1.0,2.0,95,0.00,,---,1.04,0.00,VWS V14.01,2013-01-10 01:46:00,
2013-01-09 17:51:00,36.0,34.7,29.81,ENE,65,0.0,2.0,95,0.00,,---,1.04,0.00,VWS V14.01,2013-01-10 01:51:00,
2013-01-09 17:56:00,36.0,34.7,29.81,ENE,65,1.0,2.0,95,0.00,,---,1.04,0.00,VWS V14.01,2013-01-10 01:56:00,
2013-01-09 18:01:00,35.9,34.6,29.81,NE,51,1.0,2.0,95,0.00,,---,1.04,0.00,VWS V14.01,2013-01-10 02:01:00,
2013-01-09 18:06:00,36.0,34.7,29.81,NNE,32,0.0,4.0,95,0.00,,---,1.04,0.00,VWS V14.01,2013-01-10 02:06:00,
2013-01-09 18:11:00,36.0,35.0,29.82,NE,51,1.0,2.0,96,0.00,,---,1.04,0.00,VWS V14.01,2013-01-10 02:11:00,
2013-01-09 18:16:00,36.0,35.0,29.82,NE,51,0.0,2.0,96,0.00,,---,1.04,0.00,VWS V14.01,2013-01-10 02:16:00,
2013-01-09 18:21:00,36.0,35.0,29.82,NE,51,1.0,1.0,96,0.00,,---,1.04,0.00,VWS V14.01,2013-01-10 02:21:00,
2013-01-09 18:26:00,36.0,35.0,29.82,NE,44,0.0,2.0,96,0.00,,---,1.04,0.00,VWS V14.01,2013-01-10 02:26:00,
2013-01-09 18:31:00,35.9,34.6,29.83,NE,43,0.0,2.0,95,0.00,,---,1.04,0.00,VWS V14.01,2013-01-10 02:31:00,
2013-01-09 18:36:00,35.7,34.4,29.83,East,94,0.0,3.0,95,0.00,,---,1.04,0.00,VWS V14.01,2013-01-10 02:36:00,
2013-01-09 18:41:00,35.6,34.3,29.83,East,82,1.0,3.0,95,0.00,,---,1.04,0.00,VWS V14.01,2013-01-10 02:41:00,
2013-01-09 18:46:00,35.6,34.6,29.83,East,82,0.0,3.0,96,0.00,,---,1.04,0.00,VWS V14.01,2013-01-10 02:46:00,
2013-01-09 18:51:00,35.4,34.4,29.83,East,82,0.0,2.0,96,0.00,,---,1.04,0.00,VWS V14.01,2013-01-10 02:51:00,
2013-01-09 18:56:00,35.4,34.4,29.83,NNE,30,1.0,2.0,96,0.00,,---,1.04,0.00,VWS V14.01,2013-01-10 02:56:00,
2013-01-09 19:01:00,35.4,34.4,29.83,NE,36,0.0,5.0,96,0.00,,---,1.04,0.00,VWS V14.01,2013-01-10 03:01:00,
2013-01-09 19:06:00,35.3,34.3,29.83,ENE,76,0.0,3.0,96,0.00,,---,1.04,0.00,VWS V14.01,2013-01-10 03:06:00,
2013-01-09 19:11:00,35.3,34.3,29.83,ENE,74,1.0,4.0,96,0.00,,---,1.04,0.00,VWS V14.01,2013-01-10 03:11:00,
2013-01-09 19:16:00,35.3,34.3,29.83,ENE,75,0.0,4.0,96,0.00,,---,1.04,0.00,VWS V14.01,2013-01-10 03:16:00,
2013-01-09 19:21:00,35.3,34.3,29.83,NNE,28,0.0,2.0,96,0.00,,---,1.04,0.00,VWS V14.01,2013-01-10 03:21:00,
2013-01-09 19:26:00,35.3,34.3,29.83,NNE,28,0.0,2.0,96,0.00,,---,1.04,0.00,VWS V14.01,2013-01-10 03:26:00,
2013-01-09 19:31:00,35.3,34.3,29.84,NNE,28,1.0,2.0,96,0.00,,---,1.04,0.00,VWS V14.01,2013-01-10 03:31:00,
2013-01-09 19:36:00,35.3,34.3,29.84,East,91,0.0,2.0,96,0.00,,---,1.04,0.00,VWS V14.01,2013-01-10 03:36:00,
2013-01-09 19:41:00,35.3,34.3,29.84,East,90,0.0,1.0,96,0.01,,---,1.05,0.00,VWS V14.01,2013-01-10 03:41:00,
2013-01-09 19:46:00,35.1,34.1,29.83,East,90,0.0,1.0,96,0.01,,---,1.05,0.00,VWS V14.01,2013-01-10 03:46:00,
2013-01-09 19:51:00,35.1,34.1,29.84,East,90,0.0,1.0,96,0.01,,---,1.05,0.00,VWS V14.01,2013-01-10 03:51:00,
2013-01-09 19:56:00,35.1,34.1,29.84,East,90,1.0,1.0,96,0.01,,---,1.05,0.00,VWS V14.01,2013-01-10 03:56:00,
2013-01-09 20:01:00,35.1,34.1,29.84,East,90,0.0,1.0,96,0.01,,---,1.05,0.00,VWS V14.01,2013-01-10 04:01:00,
2013-01-09 20:06:00,35.1,34.1,29.84,East,90,0.0,0.0,96,0.01,,---,1.05,0.00,VWS V14.01,2013-01-10 04:06:00,
2013-01-09 20:11:00,35.1,34.1,29.84,NE,44,0.0,1.0,96,0.01,,---,1.05,0.00,VWS V14.01,2013-01-10 04:11:00,
2013-01-09 20:16:00,35.1,34.1,29.84,SE,142,0.0,2.0,96,0.01,,---,1.05,0.00,VWS V14.01,2013-01-10 04:16:00,
2013-01-09 20:21:00,35.2,34.2,29.85,ENE,63,0.0,2.0,96,0.01,,---,1.05,0.00,VWS V14.01,2013-01-10 04:21:00,
2013-01-09 20:26:00,35.1,34.1,29.85,NE,34,0.0,2.0,96,0.01,,---,1.05,0.00,VWS V14.01,2013-01-10 04:26:00,
2013-01-09 20:31:00,35.1,34.1,29.85,NE,34,0.0,1.0,96,0.01,,---,1.05,0.00,VWS V14.01,2013-01-10 04:31:00,
2013-01-09 20:36:00,35.1,34.1,29.85,NE,43,0.0,1.0,96,0.01,,---,1.05,0.00,VWS V14.01,2013-01-10 04:36:00,
2013-01-09 20:41:00,35.1,34.1,29.86,NE,43,0.0,1.0,96,0.00,,---,1.05,0.00,VWS V14.01,2013-01-10 04:41:00,
2013-01-09 20:46:00,35.1,34.1,29.86,NNW,345,0.0,2.0,96,0.00,,---,1.05,0.00,VWS V14.01,2013-01-10 04:46:00,
2013-01-09 20:52:00,35.0,34.0,29.86,East,93,1.0,2.0,96,0.00,,---,1.05,0.00,VWS V14.01,2013-01-10 04:52:00,
2013-01-09 20:57:00,35.0,34.0,29.86,East,93,0.0,2.0,96,0.00,,---,1.05,0.00,VWS V14.01,2013-01-10 04:57:00,
2013-01-09 21:00:00,35.0,34.0,29.86,NNE,24,0.0,2.0,96,0.00,,---,1.05,0.00,VWS V14.01,2013-01-10 05:00:00,
2013-01-09 21:01:00,35.0,34.0,29.86,NNE,24,0.0,2.0,96,0.00,,---,1.05,0.00,VWS V14.01,2013-01-10 05:01:00,
2013-01-09 21:02:00,35.0,34.0,29.86,NNE,24,0.0,2.0,96,0.00,,---,1.05,0.00,VWS V14.01,2013-01-10 05:02:00,
2013-01-09 21:07:00,35.0,34.0,29.86,NNE,24,0.0,0.0,96,0.00,,---,1.05,0.00,VWS V14.01,2013-01-10 05:07:00,
2013-01-09 21:12:00,35.0,34.0,29.86,NNE,24,0.0,0.0,96,0.00,,---,1.05,0.00,VWS V14.01,2013-01-10 05:12:00,
2013-01-09 21:17:00,35.0,34.0,29.86,NNE,24,0.0,0.0,96,0.00,,---,1.05,0.00,VWS V14.01,2013-01-10 05:17:00,
2013-01-09 21:22:00,35.0,34.0,29.87,NNE,24,0.0,0.0,96,0.00,,---,1.05,0.00,VWS V14.01,2013-01-10 05:22:00,
2013-01-09 21:27:00,35.0,34.2,29.87,NNE,24,0.0,0.0,97,0.00,,---,1.05,0.00,VWS V14.01,2013-01-10 05:27:00,
2013-01-09 21:32:00,34.8,33.8,29.87,NE,34,0.0,2.0,96,0.00,,---,1.05,0.00,VWS V14.01,2013-01-10 05:32:00,
2013-01-09 21:37:00,34.7,33.7,29.87,NNE,32,0.0,2.0,96,0.00,,---,1.05,0.00,VWS V14.01,2013-01-10 05:37:00,
2013-01-09 21:42:00,34.5,33.5,29.87,East,91,1.0,2.0,96,0.00,,---,1.05,0.00,VWS V14.01,2013-01-10 05:42:00,
2013-01-09 21:47:00,34.4,33.4,29.87,East,91,0.0,2.0,96,0.00,,---,1.05,0.00,VWS V14.01,2013-01-10 05:47:00,
2013-01-09 21:52:00,34.4,33.4,29.87,East,91,0.0,2.0,96,0.00,,---,1.05,0.00,VWS V14.01,2013-01-10 05:52:00,
2013-01-09 21:57:00,34.4,33.4,29.87,East,91,0.0,2.0,96,0.00,,---,1.05,0.00,VWS V14.01,2013-01-10 05:57:00,
2013-01-09 22:02:00,34.2,33.2,29.87,East,91,0.0,0.0,96,0.00,,---,1.05,0.00,VWS V14.01,2013-01-10 06:02:00,
2013-01-09 22:07:00,34.0,33.0,29.87,East,91,0.0,0.0,96,0.00,,---,1.05,0.00,VWS V14.01,2013-01-10 06:07:00,
2013-01-09 22:12:00,33.9,32.9,29.87,East,91,0.0,2.0,96,0.00,,---,1.05,0.00,VWS V14.01,2013-01-10 06:12:00,
2013-01-09 22:17:00,33.9,32.9,29.87,East,91,0.0,2.0,96,0.00,,---,1.05,0.00,VWS V14.01,2013-01-10 06:17:00,
2013-01-09 22:22:00,33.8,32.8,29.88,East,91,0.0,0.0,96,0.00,,---,1.05,0.00,VWS V14.01,2013-01-10 06:22:00,
2013-01-09 22:27:00,33.8,32.8,29.88,East,91,0.0,0.0,96,0.00,,---,1.05,0.00,VWS V14.01,2013-01-10 06:27:00,
2013-01-09 22:32:00,33.8,32.8,29.88,East,91,0.0,0.0,96,0.00,,---,1.05,0.00,VWS V14.01,2013-01-10 06:32:00,
2013-01-09 22:37:00,33.8,33.0,29.88,East,91,0.0,0.0,97,0.00,,---,1.05,0.00,VWS V14.01,2013-01-10 06:37:00,
2013-01-09 22:42:00,33.9,33.1,29.88,East,91,0.0,0.0,97,0.00,,---,1.05,0.00,VWS V14.01,2013-01-10 06:42:00,
2013-01-09 22:47:00,33.9,33.1,29.88,East,91,0.0,0.0,97,0.00,,---,1.05,0.00,VWS V14.01,2013-01-10 06:47:00,
2013-01-09 22:52:00,33.9,33.1,29.88,East,91,0.0,0.0,97,0.00,,---,1.05,0.00,VWS V14.01,2013-01-10 06:52:00,
2013-01-09 22:57:00,33.9,33.1,29.88,East,91,0.0,0.0,97,0.00,,---,1.05,0.00,VWS V14.01,2013-01-10 06:57:00,
2013-01-09 23:02:00,33.9,33.1,29.88,East,91,0.0,0.0,97,0.00,,---,1.05,0.00,VWS V14.01,2013-01-10 07:02:00,
2013-01-09 23:07:00,33.9,33.1,29.88,East,91,0.0,0.0,97,0.00,,---,1.05,0.00,VWS V14.01,2013-01-10 07:07:00,
2013-01-09 23:12:00,33.9,33.1,29.88,East,91,0.0,0.0,97,0.00,,---,1.05,0.00,VWS V14.01,2013-01-10 07:12:00,
2013-01-09 23:17:00,34.0,33.2,29.88,East,91,0.0,0.0,97,0.00,,---,1.05,0.00,VWS V14.01,2013-01-10 07:17:00,
2013-01-09 23:22:00,33.9,33.1,29.88,East,91,0.0,0.0,97,0.00,,---,1.05,0.00,VWS V14.01,2013-01-10 07:22:00,
2013-01-09 23:27:00,34.0,33.2,29.88,East,91,0.0,0.0,97,0.00,,---,1.05,0.00,VWS V14.01,2013-01-10 07:27:00,
2013-01-09 23:32:00,34.0,33.2,29.88,East,91,0.0,0.0,97,0.00,,---,1.05,0.00,VWS V14.01,2013-01-10 07:32:00,
2013-01-09 23:37:00,34.0,33.2,29.88,East,91,0.0,0.0,97,0.00,,---,1.05,0.00,VWS V14.01,2013-01-10 07:37:00,
2013-01-09 23:42:00,34.1,33.3,29.88,East,91,0.0,0.0,97,0.00,,---,1.05,0.00,VWS V14.01,2013-01-10 07:42:00,
2013-01-09 23:47:00,34.1,33.3,29.87,East,91,0.0,0.0,97,0.00,,---,1.05,0.00,VWS V14.01,2013-01-10 07:47:00,
2013-01-09 23:52:00,34.2,33.4,29.87,East,91,0.0,0.0,97,0.00,,---,1.05,0.00,VWS V14.01,2013-01-10 07:52:00,
2013-01-09 23:57:00,34.2,33.4,29.87,East,91,0.0,0.0,97,0.00,,---,1.05,0.00,VWS V14.01,2013-01-10 07:57:00,